Taiheimaru — JM6135 — position and weather

sailwx.info

Track history (hours):
 
Tides and Currents Weather Stations Pressure Air Temp Water Temp Dewpoint Dewpoint Depression Visibility Wind Speed Wind Dir Waves Ship Positions

Taiheimaru

Last reported at 2015-Feb-27 08:30 UTC. Time now 2015-Feb-27 13:06 UTC.
Position N 34°36' E 135°04'.

Length 78 m.

Type: Cargo ship. MMSI: 431400082.

Date/timePositionNaut miles runAvg speedWind from/ knotsBaromVisibWave heightAir tempDewpointWater temp
2015-Feb-27 08:30N 34°36' E 135°04'14 4.7
2015-Feb-27 05:32N 34°39' E 135°21'5 5.5
2015-Feb-27 04:33N 34°39' E 135°14'0 0.0
2015-Feb-27 03:32N 34°39' E 135°14'0 0.0
2015-Feb-27 02:27N 34°39' E 135°14'1 1.1
2015-Feb-27 01:21N 34°38' E 135°15'0 0.0
2015-Feb-27 00:32N 34°38' E 135°15'1 0.8
2015-Feb-26 23:28N 34°38' E 135°15'1010.9
2015-Feb-26 22:33N 34°36' E 135°02'4 0.1
2015-Feb-25 04:31N 34°37' E 134°57'1212.5
2015-Feb-25 03:34N 34°37' E 135°12'10 5.0
2015-Feb-25 01:33N 34°37' E 135°24'9 8.5
2015-Feb-25 00:33N 34°40' E 135°14'0 0.0
2015-Feb-24 23:33N 34°40' E 135°14'1 1.2
2015-Feb-24 22:30N 34°38' E 135°15'0 0.1
2015-Feb-24 21:29N 34°38' E 135°15'1010.2
2015-Feb-24 20:31N 34°35' E 135°04'7 0.2
2015-Feb-23 08:18N 34°37' E 134°56'6 7.4
2015-Feb-23 07:31N 34°36' E 135°03'9 9.7
2015-Feb-23 06:32N 34°38' E 135°15'2 1.7
2015-Feb-23 05:24N 34°40' E 135°14'0 0.0
2015-Feb-23 04:29N 34°40' E 135°14'0 0.1
2015-Feb-23 03:30N 34°40' E 135°14'1 0.7
2015-Feb-23 02:03N 34°41' E 135°14'1 2.0
2015-Feb-23 01:20N 34°42' E 135°13'0 0.0
2015-Feb-23 00:26N 34°42' E 135°13'0 0.0
2015-Feb-22 23:33N 34°42' E 135°13'0 0.0
2015-Feb-22 22:30N 34°42' E 135°13'0 0.0
2015-Feb-22 21:32N 34°42' E 135°13'0 0.0
2015-Feb-22 20:29N 34°42' E 135°13'0 0.0
2015-Feb-22 19:33N 34°42' E 135°13'0 0.0
2015-Feb-22 18:31N 34°42' E 135°13'0 0.0
2015-Feb-22 17:32N 34°42' E 135°13'0 0.0
2015-Feb-22 16:30N 34°42' E 135°13'0 0.0
2015-Feb-22 15:30N 34°42' E 135°13'0 0.0
2015-Feb-22 14:33N 34°42' E 135°13'0 0.0
2015-Feb-22 13:30N 34°42' E 135°13'0 0.0
2015-Feb-22 12:32N 34°42' E 135°13'0 0.0
2015-Feb-22 11:33N 34°42' E 135°13'0 0.0
2015-Feb-22 10:26N 34°42' E 135°13'0 0.0
2015-Feb-22 09:32N 34°42' E 135°13'0 0.0
2015-Feb-22 08:29N 34°42' E 135°13'0 0.0
2015-Feb-22 07:18N 34°42' E 135°13'0 0.0
2015-Feb-22 06:32N 34°42' E 135°13'4 4.3
2015-Feb-22 05:32N 34°37' E 135°14'9 0.2
2015-Feb-20 08:23N 34°36' E 135°03'1011.9
2015-Feb-20 07:33N 34°38' E 135°15'1 1.3
2015-Feb-20 06:30N 34°40' E 135°14'0 0.0
2015-Feb-20 05:12N 34°40' E 135°14'0 0.0
2015-Feb-20 04:29N 34°40' E 135°14'1 1.2
2015-Feb-20 03:22N 34°38' E 135°15'0 0.0
2015-Feb-20 02:22N 34°38' E 135°15'0 0.0
2015-Feb-20 01:28N 34°38' E 135°15'0 0.0
2015-Feb-20 00:28N 34°38' E 135°15'0 0.0
2015-Feb-19 23:26N 34°38' E 135°15'3 3.3
2015-Feb-19 22:33N 34°37' E 135°12'13 0.4
2015-Feb-18 13:26N 34°37' E 134°56'910.2
2015-Feb-18 12:33N 34°36' E 135°07'7 6.2
2015-Feb-18 11:25N 34°40' E 135°14'0 0.3
2015-Feb-18 10:31N 34°39' E 135°15'3 2.5
2015-Feb-18 09:31N 34°41' E 135°12'0 0.0
2015-Feb-18 08:31N 34°41' E 135°12'0 0.0
2015-Feb-18 07:32N 34°41' E 135°12'0 0.0
2015-Feb-18 06:28N 34°41' E 135°12'0 0.0
2015-Feb-18 05:22N 34°41' E 135°12'0 0.0
2015-Feb-18 04:28N 34°41' E 135°12'0 0.0
2015-Feb-18 03:28N 34°41' E 135°12'0 0.0
2015-Feb-18 02:28N 34°41' E 135°12'0 0.0
2015-Feb-18 01:22N 34°41' E 135°12'2 2.7
2015-Feb-18 00:33N 34°40' E 135°14'0 0.0
2015-Feb-17 23:23N 34°40' E 135°14'1 1.4
2015-Feb-17 22:33N 34°38' E 135°15'0 0.0
2015-Feb-17 21:24N 34°38' E 135°15'0 0.0
2015-Feb-17 20:30N 34°38' E 135°15'9 9.5
2015-Feb-17 19:33N 34°35' E 135°04'  
Track history (hours):
 
Tides and Currents Weather Stations Pressure Air Temp Water Temp Dewpoint Dewpoint Depression Visibility Wind Speed Wind Dir Waves Ship Positions

Taiheimaru

Last reported at 2015-Feb-27 08:30 UTC. Time now 2015-Feb-27 13:06 UTC.
Position N 34°36' E 135°04'.

Length 78 m.

Type: Cargo ship. MMSI: 431400082.

Date/timePositionNaut miles runAvg speedWind from/ knotsBaromVisibWave heightAir tempDewpointWater temp
2015-Feb-27 08:30N 34°36' E 135°04'14 4.7
2015-Feb-27 05:32N 34°39' E 135°21'5 5.5
2015-Feb-27 04:33N 34°39' E 135°14'0 0.0
2015-Feb-27 03:32N 34°39' E 135°14'0 0.0
2015-Feb-27 02:27N 34°39' E 135°14'1 1.1
2015-Feb-27 01:21N 34°38' E 135°15'0 0.0
2015-Feb-27 00:32N 34°38' E 135°15'1 0.8
2015-Feb-26 23:28N 34°38' E 135°15'1010.9
2015-Feb-26 22:33N 34°36' E 135°02'4 0.1
2015-Feb-25 04:31N 34°37' E 134°57'1212.5
2015-Feb-25 03:34N 34°37' E 135°12'10 5.0
2015-Feb-25 01:33N 34°37' E 135°24'9 8.5
2015-Feb-25 00:33N 34°40' E 135°14'0 0.0
2015-Feb-24 23:33N 34°40' E 135°14'1 1.2
2015-Feb-24 22:30N 34°38' E 135°15'0 0.1
2015-Feb-24 21:29N 34°38' E 135°15'1010.2
2015-Feb-24 20:31N 34°35' E 135°04'7 0.2
2015-Feb-23 08:18N 34°37' E 134°56'6 7.4
2015-Feb-23 07:31N 34°36' E 135°03'9 9.7
2015-Feb-23 06:32N 34°38' E 135°15'2 1.7
2015-Feb-23 05:24N 34°40' E 135°14'0 0.0
2015-Feb-23 04:29N 34°40' E 135°14'0 0.1
2015-Feb-23 03:30N 34°40' E 135°14'1 0.7
2015-Feb-23 02:03N 34°41' E 135°14'1 2.0
2015-Feb-23 01:20N 34°42' E 135°13'0 0.0
2015-Feb-23 00:26N 34°42' E 135°13'0 0.0
2015-Feb-22 23:33N 34°42' E 135°13'0 0.0
2015-Feb-22 22:30N 34°42' E 135°13'0 0.0
2015-Feb-22 21:32N 34°42' E 135°13'0 0.0
2015-Feb-22 20:29N 34°42' E 135°13'0 0.0
2015-Feb-22 19:33N 34°42' E 135°13'0 0.0
2015-Feb-22 18:31N 34°42' E 135°13'0 0.0
2015-Feb-22 17:32N 34°42' E 135°13'0 0.0
2015-Feb-22 16:30N 34°42' E 135°13'0 0.0
2015-Feb-22 15:30N 34°42' E 135°13'0 0.0
2015-Feb-22 14:33N 34°42' E 135°13'0 0.0
2015-Feb-22 13:30N 34°42' E 135°13'0 0.0
2015-Feb-22 12:32N 34°42' E 135°13'0 0.0
2015-Feb-22 11:33N 34°42' E 135°13'0 0.0
2015-Feb-22 10:26N 34°42' E 135°13'0 0.0
2015-Feb-22 09:32N 34°42' E 135°13'0 0.0
2015-Feb-22 08:29N 34°42' E 135°13'0 0.0
2015-Feb-22 07:18N 34°42' E 135°13'0 0.0
2015-Feb-22 06:32N 34°42' E 135°13'4 4.3
2015-Feb-22 05:32N 34°37' E 135°14'9 0.2
2015-Feb-20 08:23N 34°36' E 135°03'1011.9
2015-Feb-20 07:33N 34°38' E 135°15'1 1.3
2015-Feb-20 06:30N 34°40' E 135°14'0 0.0
2015-Feb-20 05:12N 34°40' E 135°14'0 0.0
2015-Feb-20 04:29N 34°40' E 135°14'1 1.2
2015-Feb-20 03:22N 34°38' E 135°15'0 0.0
2015-Feb-20 02:22N 34°38' E 135°15'0 0.0
2015-Feb-20 01:28N 34°38' E 135°15'0 0.0
2015-Feb-20 00:28N 34°38' E 135°15'0 0.0
2015-Feb-19 23:26N 34°38' E 135°15'3 3.3
2015-Feb-19 22:33N 34°37' E 135°12'13 0.4
2015-Feb-18 13:26N 34°37' E 134°56'910.2
2015-Feb-18 12:33N 34°36' E 135°07'7 6.2
2015-Feb-18 11:25N 34°40' E 135°14'0 0.3
2015-Feb-18 10:31N 34°39' E 135°15'3 2.5
2015-Feb-18 09:31N 34°41' E 135°12'0 0.0
2015-Feb-18 08:31N 34°41' E 135°12'0 0.0
2015-Feb-18 07:32N 34°41' E 135°12'0 0.0
2015-Feb-18 06:28N 34°41' E 135°12'0 0.0
2015-Feb-18 05:22N 34°41' E 135°12'0 0.0
2015-Feb-18 04:28N 34°41' E 135°12'0 0.0
2015-Feb-18 03:28N 34°41' E 135°12'0 0.0
2015-Feb-18 02:28N 34°41' E 135°12'0 0.0
2015-Feb-18 01:22N 34°41' E 135°12'2 2.7
2015-Feb-18 00:33N 34°40' E 135°14'0 0.0
2015-Feb-17 23:23N 34°40' E 135°14'1 1.4
2015-Feb-17 22:33N 34°38' E 135°15'0 0.0
2015-Feb-17 21:24N 34°38' E 135°15'0 0.0
2015-Feb-17 20:30N 34°38' E 135°15'9 9.5
2015-Feb-17 19:33N 34°35' E 135°04'  

Dump ship's entire track history